Time;durP1;ratioP1;P1;durP2;ratioP2;P2;SDS_P1;SDS_P2;PMS_P1;PMS_P2;Temp;Humidity;BMP_temperature;BMP_pressure;BME280_temperature;BME280_humidity;BME280_pressure;Samples;Min_cycle;Max_cycle;Signal;HPM_P1;HPM_P2
2022/04/23 00:00:55;;;;;;;9.27;3.97;;;;;;;12.36;60.19;98730.34;3145993;28;20131;-73
2022/04/23 00:02:27;;;;;;;8.95;3.80;;;;;;;12.29;60.03;98730.78;3146447;28;20074;-73
2022/04/23 00:03:59;;;;;;;9.63;3.97;;;;;;;12.32;60.24;98739.34;3146900;28;20450;-73
2022/04/23 00:05:31;;;;;;;10.77;3.70;;;;;;;12.29;59.97;98736.00;3144350;28;20115;-73
2022/04/23 00:07:04;;;;;;;10.10;4.10;;;;;;;12.25;60.55;98736.34;3146584;28;20410;-73
2022/04/23 00:08:36;;;;;;;8.17;4.20;;;;;;;12.23;60.49;98733.81;3146214;28;20044;-73
2022/04/23 00:10:09;;;;;;;8.85;4.22;;;;;;;12.22;60.76;98724.31;3146718;28;20314;-72
2022/04/23 00:11:41;;;;;;;6.28;3.97;;;;;;;12.16;60.72;98727.34;3146786;28;20048;-72
2022/04/23 00:13:14;;;;;;;7.00;3.88;;;;;;;12.18;60.74;98729.84;3145477;28;20060;-73
2022/04/23 00:14:46;;;;;;;12.10;4.18;;;;;;;12.12;61.08;98732.88;3144940;28;20052;-73
2022/04/23 00:16:19;;;;;;;9.95;3.80;;;;;;;12.14;60.78;98731.84;3146526;28;20056;-72
2022/04/23 00:17:51;;;;;;;8.02;4.47;;;;;;;12.15;60.74;98732.66;3145982;28;20084;-73
2022/04/23 00:19:22;;;;;;;11.15;4.13;;;;;;;12.11;60.86;98728.63;3146427;28;20044;-73
2022/04/23 00:20:55;;;;;;;11.07;4.05;;;;;;;12.10;61.12;98729.53;3145548;28;20149;-73
2022/04/23 00:22:27;;;;;;;10.32;4.10;;;;;;;12.05;61.37;98733.31;3146407;28;20056;-73
2022/04/23 00:23:59;;;;;;;8.27;4.70;;;;;;;12.05;61.43;98732.47;3145878;28;20430;-72
2022/04/23 00:25:31;;;;;;;8.15;4.25;;;;;;;12.04;61.69;98725.59;3146004;28;20485;-73
2022/04/23 00:27:03;;;;;;;8.32;4.22;;;;;;;12.02;61.68;98725.69;3146397;28;20060;-73
2022/04/23 00:28:37;;;;;;;14.30;3.78;;;;;;;12.00;61.57;98724.94;3146480;28;20529;-73
2022/04/23 00:30:09;;;;;;;9.50;4.05;;;;;;;12.04;61.96;98731.63;3145844;28;20056;-72
2022/04/23 00:31:41;;;;;;;11.57;4.60;;;;;;;12.03;61.87;98732.56;3142826;28;20057;-73
2022/04/23 00:33:12;;;;;;;8.23;4.97;;;;;;;12.02;61.79;98743.94;3146572;28;20397;-72
2022/04/23 00:34:44;;;;;;;8.90;4.03;;;;;;;11.95;62.12;98740.09;3146290;28;20052;-72
2022/04/23 00:36:16;;;;;;;8.05;4.35;;;;;;;11.94;62.14;98741.00;3146355;28;20052;-72
2022/04/23 00:37:48;;;;;;;8.05;4.50;;;;;;;11.89;62.43;98735.31;3145847;28;20113;-72
2022/04/23 00:39:20;;;;;;;7.45;3.97;;;;;;;11.87;62.57;98744.16;3146623;28;20480;-72
2022/04/23 00:40:52;;;;;;;9.90;4.28;;;;;;;11.83;62.77;98746.09;3146186;28;20048;-73
2022/04/23 00:42:23;;;;;;;11.60;4.88;;;;;;;11.80;62.44;98746.28;3145848;28;20044;-72
2022/04/23 00:43:56;;;;;;;9.15;4.38;;;;;;;11.82;62.48;98747.88;3145652;28;20113;-73
2022/04/23 00:45:29;;;;;;;11.23;4.10;;;;;;;11.81;62.54;98747.97;3146549;28;20048;-73
2022/04/23 00:47:00;;;;;;;7.50;4.47;;;;;;;11.79;63.03;98745.47;3143975;28;20469;-73
2022/04/23 00:48:32;;;;;;;10.77;4.45;;;;;;;11.79;62.77;98742.03;3146492;28;20045;-73
2022/04/23 00:50:05;;;;;;;11.48;5.22;;;;;;;11.73;62.70;98734.59;3145931;28;20198;-73
2022/04/23 00:51:39;;;;;;;8.38;3.63;;;;;;;11.73;63.18;98739.81;3146010;28;20055;-73
2022/04/23 00:53:12;;;;;;;11.65;4.72;;;;;;;11.63;63.24;98729.19;3145803;28;20570;-73
2022/04/23 00:54:45;;;;;;;10.32;4.20;;;;;;;11.66;63.27;98733.38;3146204;28;20174;-73
2022/04/23 00:56:18;;;;;;;9.03;4.27;;;;;;;11.65;63.25;98734.28;3142790;28;20049;-73
2022/04/23 00:57:51;;;;;;;7.32;4.15;;;;;;;11.55;63.67;98742.72;3129955;28;20493;-73
2022/04/23 00:59:24;;;;;;;;;;;;;;;11.42;64.58;98744.47;3146030;28;20044;-73
2022/04/23 01:00:56;;;;;;;14.15;4.22;;;;;;;11.33;64.12;98740.69;3140035;28;19920;-73
2022/04/23 01:02:28;;;;;;;11.27;4.53;;;;;;;11.36;64.45;98740.50;3138057;28;20060;-73
2022/04/23 01:04:02;;;;;;;8.32;4.32;;;;;;;11.33;64.66;98745.91;3145898;28;20110;-73
2022/04/23 01:05:34;;;;;;;10.95;4.72;;;;;;;11.34;64.53;98746.75;3145871;28;20055;-72
2022/04/23 01:07:06;;;;;;;13.10;5.30;;;;;;;11.35;64.38;98756.22;3145906;28;20724;-73
2022/04/23 01:08:38;;;;;;;8.02;4.30;;;;;;;11.33;64.36;98753.72;3145368;28;20048;-73
2022/04/23 01:10:11;;;;;;;14.32;4.70;;;;;;;11.29;64.84;98749.63;3140022;28;20127;-72
2022/04/23 01:11:43;;;;;;;7.55;4.65;;;;;;;11.24;64.85;98746.50;3137653;28;20053;-73
2022/04/23 01:13:16;;;;;;;7.57;3.92;;;;;;;11.14;64.86;98746.25;3137668;28;20185;-73
2022/04/23 01:14:59;;;;;;;13.43;4.82;;;;;;;11.14;64.98;98746.25;3141102;28;20131;-72
2022/04/23 01:16:31;;;;;;;9.73;4.47;;;;;;;11.10;65.31;98746.56;3143222;28;20137;-73
2022/04/23 01:18:03;;;;;;;8.27;4.18;;;;;;;11.03;65.08;98732.22;3137990;28;20140;-73
2022/04/23 01:19:35;;;;;;;9.52;4.28;;;;;;;11.06;65.26;98737.25;3145463;28;20057;-74
2022/04/23 01:21:10;;;;;;;8.82;4.40;;;;;;;11.11;64.81;98754.25;3129253;28;20052;-72
2022/04/23 01:22:43;;;;;;;11.40;5.18;;;;;;;11.06;65.05;98745.91;3133573;28;20168;-72
2022/04/23 01:24:16;;;;;;;7.97;3.88;;;;;;;11.04;65.52;98744.34;3131255;28;20075;-72
2022/04/23 01:25:49;;;;;;;8.73;4.85;;;;;;;11.01;65.41;98745.38;3121096;28;20045;-72
2022/04/23 01:27:24;;;;;;;7.93;4.57;;;;;;;10.83;65.40;98718.72;3127095;28;20522;-72
2022/04/23 01:28:57;;;;;;;9.88;4.32;;;;;;;10.99;65.33;98752.44;3129954;28;20126;-74
2022/04/23 01:30:29;;;;;;;8.75;4.63;;;;;;;10.93;65.28;98743.25;3132413;28;20053;-73
2022/04/23 01:32:00;;;;;;;19.20;5.50;;;;;;;10.97;65.51;98749.09;3125240;28;20115;-74
2022/04/23 01:33:34;;;;;;;13.35;4.60;;;;;;;11.00;65.41;98756.69;3130071;28;20360;-74
2022/04/23 01:35:06;;;;;;;9.82;4.57;;;;;;;11.01;65.46;98765.38;3125950;28;20080;-74
2022/04/23 01:36:40;;;;;;;8.80;4.30;;;;;;;11.02;65.28;98770.47;3132393;28;20056;-74
2022/04/23 01:38:11;;;;;;;9.77;4.30;;;;;;;10.98;64.93;98766.41;3119480;28;20053;-74
2022/04/23 01:39:44;;;;;;;8.68;4.57;;;;;;;10.96;65.14;98759.63;3133558;28;20052;-74
2022/04/23 01:41:16;;;;;;;7.53;4.00;;;;;;;10.92;65.10;98753.78;3132766;28;20080;-74
2022/04/23 01:42:47;;;;;;;9.18;4.32;;;;;;;10.91;65.01;98755.53;3127467;28;20049;-74
2022/04/23 01:44:19;;;;;;;12.95;6.00;;;;;;;10.93;64.96;98747.63;3133156;28;20118;-74
2022/04/23 01:45:51;;;;;;;10.57;4.05;;;;;;;10.86;64.84;98746.34;3132766;28;20061;-74
2022/04/23 01:47:23;;;;;;;7.57;4.13;;;;;;;10.88;65.15;98752.28;3132905;28;20056;-74
2022/04/23 01:48:55;;;;;;;11.90;4.53;;;;;;;10.80;65.30;98747.56;3132240;28;20490;-73
2022/04/23 01:50:27;;;;;;;9.38;4.70;;;;;;;10.80;65.30;98757.16;3133217;28;20502;-74
2022/04/23 01:52:00;;;;;;;10.02;4.68;;;;;;;10.79;65.45;98764.09;3132479;28;20072;-73
2022/04/23 01:53:32;;;;;;;14.43;5.55;;;;;;;10.79;65.09;98761.50;3132882;28;21046;-73
2022/04/23 01:55:04;;;;;;;12.88;4.50;;;;;;;10.78;65.50;98757.22;3131670;28;20418;-73
2022/04/23 01:56:36;;;;;;;9.27;4.93;;;;;;;10.81;65.44;98764.03;3132943;28;20785;-73
2022/04/23 01:58:08;;;;;;;13.50;5.45;;;;;;;10.78;65.62;98774.63;3132548;28;20052;-73
2022/04/23 01:59:40;;;;;;;8.77;5.00;;;;;;;10.75;65.71;98780.03;3132557;28;20049;-74
2022/04/23 02:01:12;;;;;;;9.98;4.90;;;;;;;10.69;65.67;98782.06;3132632;28;20134;-74
2022/04/23 02:02:43;;;;;;;7.40;5.10;;;;;;;10.64;65.61;98768.50;3133116;28;20049;-74
2022/04/23 02:04:15;;;;;;;9.60;5.13;;;;;;;10.61;65.72;98776.50;3132925;28;21996;-74
2022/04/23 02:05:47;;;;;;;15.07;5.65;;;;;;;10.56;66.11;98780.31;3128393;28;20115;-73
2022/04/23 02:07:20;;;;;;;10.90;5.40;;;;;;;10.47;66.25;98771.31;3132863;28;20065;-73
2022/04/23 02:08:52;;;;;;;10.88;5.80;;;;;;;10.46;66.35;98780.88;3131898;28;20512;-73
2022/04/23 02:10:24;;;;;;;8.25;5.40;;;;;;;10.43;66.61;98773.25;3132931;28;20049;-74
2022/04/23 02:11:56;;;;;;;7.68;4.82;;;;;;;10.43;66.53;98778.47;3132590;28;20045;-73
2022/04/23 02:13:28;;;;;;;13.20;5.38;;;;;;;10.41;66.76;98779.47;3132486;28;20056;-74
2022/04/23 02:15:00;;;;;;;10.07;5.13;;;;;;;10.36;66.85;98784.16;3131664;28;20123;-73
2022/04/23 02:16:33;;;;;;;12.27;5.80;;;;;;;10.17;67.12;98764.38;3132785;28;20056;-73
2022/04/23 02:18:05;;;;;;;14.73;5.60;;;;;;;10.21;67.05;98780.69;3132704;28;20045;-74
2022/04/23 02:19:37;;;;;;;11.55;5.60;;;;;;;10.20;67.39;98785.06;3132230;28;20513;-73
2022/04/23 02:21:09;;;;;;;8.32;5.10;;;;;;;10.14;67.21;98774.16;3132975;28;20053;-73
2022/04/23 02:22:44;;;;;;;11.90;6.07;;;;;;;10.15;67.37;98784.47;3132377;28;20049;-73
2022/04/23 02:24:16;;;;;;;10.43;5.25;;;;;;;10.07;67.49;98778.88;3132964;28;20056;-73
2022/04/23 02:25:48;;;;;;;12.35;5.78;;;;;;;10.10;67.87;98776.09;3129311;28;20136;-73
2022/04/23 02:27:19;;;;;;;12.18;6.00;;;;;;;10.07;67.80;98775.44;3133100;28;20045;-73
2022/04/23 02:28:51;;;;;;;13.65;5.90;;;;;;;9.96;67.94;98765.66;3130946;28;20052;-74
2022/04/23 02:30:23;;;;;;;13.38;6.15;;;;;;;10.10;67.71;98796.91;3132693;28;20506;-73
2022/04/23 02:31:55;;;;;;;10.57;5.72;;;;;;;10.09;67.79;98799.63;3133448;28;20136;-74
2022/04/23 02:33:27;;;;;;;11.32;5.70;;;;;;;10.02;67.91;98791.31;3131119;28;20390;-74
2022/04/23 02:34:59;;;;;;;11.27;5.45;;;;;;;9.97;67.66;98780.38;3132922;28;20696;-74
2022/04/23 02:36:31;;;;;;;10.48;6.38;;;;;;;10.06;68.35;98803.22;3132095;28;20057;-74
2022/04/23 02:38:04;;;;;;;17.23;5.95;;;;;;;10.05;67.96;98811.94;3132932;28;20067;-74
2022/04/23 02:39:36;;;;;;;13.93;6.05;;;;;;;10.00;68.36;98804.44;3132933;28;20780;-74
2022/04/23 02:41:08;;;;;;;11.68;5.63;;;;;;;10.03;68.13;98808.63;3132856;28;20052;-73
2022/04/23 02:42:40;;;;;;;12.93;6.35;;;;;;;10.02;68.20;98812.97;3132672;28;20045;-74
2022/04/23 02:44:15;;;;;;;10.00;5.63;;;;;;;10.01;68.39;98818.25;3133244;28;20607;-73
2022/04/23 02:45:48;;;;;;;16.80;5.68;;;;;;;9.99;68.06;98814.91;3134897;28;20122;-73
2022/04/23 02:47:19;;;;;;;12.88;6.13;;;;;;;9.98;68.26;98815.84;3135548;28;20459;-73
2022/04/23 02:48:51;;;;;;;9.82;6.15;;;;;;;9.93;68.56;98817.88;3134627;28;20057;-73
2022/04/23 02:50:26;;;;;;;12.30;5.72;;;;;;;9.80;68.66;98797.78;3135555;28;20429;-73
2022/04/23 02:51:58;;;;;;;17.05;6.93;;;;;;;9.86;68.39;98813.97;3134933;28;20091;-74
2022/04/23 02:53:31;;;;;;;12.55;5.07;;;;;;;9.85;68.60;98820.94;3131263;28;20537;-73
2022/04/23 02:55:05;;;;;;;10.05;5.88;;;;;;;9.84;68.98;98819.25;3135502;28;20433;-74
2022/04/23 02:56:36;;;;;;;8.95;5.95;;;;;;;9.81;68.78;98822.00;3131643;28;20056;-73
2022/04/23 02:58:10;;;;;;;10.95;5.95;;;;;;;9.82;68.78;98817.66;3134833;28;20597;-74
2022/04/23 02:59:41;;;;;;;12.35;6.40;;;;;;;9.82;69.10;98825.44;3133699;28;20125;-73
2022/04/23 03:01:13;;;;;;;11.60;5.72;;;;;;;9.78;69.15;98823.03;3134938;28;20552;-74
2022/04/23 03:02:47;;;;;;;11.20;6.10;;;;;;;9.76;69.20;98822.28;3134073;28;20415;-73
2022/04/23 03:04:19;;;;;;;;;;;;;;;9.72;69.30;98825.97;3135567;28;20135;-74
2022/04/23 03:05:53;;;;;;;11.90;6.18;;;;;;;9.68;69.41;98823.66;3132588;28;20603;-73
2022/04/23 03:07:25;;;;;;;16.40;6.18;;;;;;;9.60;69.64;98818.88;3135802;28;20048;-73
2022/04/23 03:09:02;;;;;;;11.95;6.13;;;;;;;9.65;69.45;98839.44;3135220;28;20045;-74
2022/04/23 03:10:34;;;;;;;10.85;6.20;;;;;;;9.69;69.29;98846.13;3135149;28;20441;-74
2022/04/23 03:12:09;;;;;;;10.98;6.03;;;;;;;9.70;69.32;98846.03;3134874;28;20696;-74
2022/04/23 03:13:41;;;;;;;10.63;5.85;;;;;;;9.70;69.20;98848.66;3129672;28;20048;-73
2022/04/23 03:15:15;;;;;;;13.70;6.60;;;;;;;9.58;69.12;98831.13;3134997;28;20511;-73
2022/04/23 03:16:47;;;;;;;11.60;6.43;;;;;;;9.77;68.99;98856.94;3133985;28;20045;-74
2022/04/23 03:18:19;;;;;;;12.70;6.35;;;;;;;9.75;69.38;98859.59;3135054;28;20122;-73
2022/04/23 03:19:51;;;;;;;12.93;6.40;;;;;;;9.71;69.22;98860.72;3134653;28;20502;-73
2022/04/23 03:21:23;;;;;;;17.85;6.10;;;;;;;9.71;69.29;98871.09;3135058;28;20075;-73
2022/04/23 03:22:53;;;;;;;10.85;5.93;;;;;;;9.71;69.61;98875.47;3132233;28;20049;-73
2022/04/23 03:24:27;;;;;;;14.40;6.85;;;;;;;9.71;69.43;98875.47;3133778;28;20045;-73
2022/04/23 03:25:59;;;;;;;12.00;6.15;;;;;;;9.72;69.53;98869.34;3134701;28;20049;-74
2022/04/23 03:27:31;;;;;;;13.93;5.82;;;;;;;9.67;69.20;98858.34;3133982;28;20052;-73
2022/04/23 03:29:05;;;;;;;13.30;5.90;;;;;;;9.75;69.33;98880.41;3134523;28;20060;-74
2022/04/23 03:30:36;;;;;;;;;;;;;;;9.77;68.99;98875.97;3132639;28;20076;-73
2022/04/23 03:32:10;;;;;;;11.13;5.47;;;;;;;9.78;68.84;98872.44;3127126;28;20362;-73
2022/04/23 03:33:41;;;;;;;10.02;5.75;;;;;;;9.79;69.09;98870.69;3134779;28;20121;-74
2022/04/23 03:35:14;;;;;;;13.18;6.72;;;;;;;9.76;69.16;98871.69;3134273;28;20052;-74
2022/04/23 03:36:47;;;;;;;12.05;5.93;;;;;;;9.67;69.19;98861.81;3134761;28;20051;-74
2022/04/23 03:38:18;;;;;;;9.65;6.22;;;;;;;9.78;69.02;98874.19;3134394;28;20064;-73
2022/04/23 03:39:52;;;;;;;10.57;5.95;;;;;;;9.79;68.92;98879.31;3133383;28;20502;-74
2022/04/23 03:41:24;;;;;;;18.45;6.78;;;;;;;9.77;68.86;98870.75;3134533;28;20492;-74
2022/04/23 03:42:56;;;;;;;11.20;6.43;;;;;;;9.72;68.78;98858.94;3133904;28;20049;-74
2022/04/23 03:44:27;;;;;;;13.18;7.03;;;;;;;9.80;68.83;98867.16;3134170;28;20049;-73
2022/04/23 03:45:59;;;;;;;16.08;6.53;;;;;;;9.79;68.81;98858.53;3134645;28;20124;-74
2022/04/23 03:47:31;;;;;;;14.30;5.70;;;;;;;9.79;68.75;98853.31;3133937;28;20103;-74
2022/04/23 03:49:03;;;;;;;11.98;6.03;;;;;;;9.82;68.73;98847.09;3134117;28;20045;-74
2022/04/23 03:50:35;;;;;;;11.27;5.05;;;;;;;9.82;68.70;98849.72;3134008;28;20049;-74
2022/04/23 03:52:10;;;;;;;11.82;6.00;;;;;;;9.85;68.41;98840.88;3134198;28;20095;-74
2022/04/23 03:53:42;;;;;;;12.20;5.35;;;;;;;9.91;68.40;98843.97;3133281;28;20118;-74
2022/04/23 03:55:15;;;;;;;8.88;5.32;;;;;;;9.94;68.58;98842.97;3130324;28;20103;-74
2022/04/23 03:56:47;;;;;;;8.18;4.88;;;;;;;9.91;68.37;98837.91;3127265;28;20103;-74
2022/04/23 03:58:19;;;;;;;7.05;4.72;;;;;;;9.95;68.50;98839.44;3134544;28;20075;-74
2022/04/23 03:59:51;;;;;;;10.23;5.47;;;;;;;9.97;68.16;98835.00;3134011;28;20183;-74
2022/04/23 04:01:23;;;;;;;12.02;5.15;;;;;;;10.00;68.20;98843.44;3133193;28;20510;-74
2022/04/23 04:02:56;;;;;;;14.18;5.28;;;;;;;10.03;68.21;98850.22;3133978;28;20361;-74
2022/04/23 04:04:28;;;;;;;10.35;4.75;;;;;;;10.02;67.96;98844.16;3134351;28;20052;-74
2022/04/23 04:06:00;;;;;;;8.60;5.22;;;;;;;10.12;67.77;98846.25;3129367;28;20112;-74
2022/04/23 04:07:31;;;;;;;10.40;5.43;;;;;;;10.15;67.74;98841.72;3131060;28;20179;-74
2022/04/23 04:09:03;;;;;;;9.70;5.15;;;;;;;10.06;67.67;98820.56;3131574;28;20056;-74
2022/04/23 04:10:36;;;;;;;8.05;4.68;;;;;;;10.23;67.70;98847.31;3134544;28;20045;-74
2022/04/23 04:12:10;;;;;;;8.98;5.30;;;;;;;10.27;67.77;98852.38;3131863;28;20050;-74
2022/04/23 04:13:42;;;;;;;12.02;5.57;;;;;;;10.28;67.61;98846.22;3134370;28;20501;-74
2022/04/23 04:15:15;;;;;;;10.57;4.93;;;;;;;10.34;67.58;98853.66;3133860;28;20053;-74
2022/04/23 04:16:47;;;;;;;9.23;4.85;;;;;;;10.39;67.86;98857.66;3122814;28;20136;-74
2022/04/23 04:18:19;;;;;;;9.23;5.03;;;;;;;10.43;67.28;98858.31;3129502;28;20687;-74
2022/04/23 04:19:50;;;;;;;9.07;4.97;;;;;;;10.47;67.17;98845.03;3125083;28;20049;-74
2022/04/23 04:21:22;;;;;;;11.15;5.35;;;;;;;10.51;67.43;98843.09;3131617;28;20056;-74
2022/04/23 04:22:55;;;;;;;7.85;5.07;;;;;;;10.55;67.07;98841.97;3134246;28;20063;-74
2022/04/23 04:24:26;;;;;;;;;;;;;;;10.58;66.87;98844.38;3133700;28;20053;-74
2022/04/23 04:25:59;;;;;;;10.05;4.93;;;;;;;10.57;66.73;98840.13;3134478;28;20447;-74
2022/04/23 04:27:31;;;;;;;13.27;4.60;;;;;;;10.61;67.13;98840.75;3133078;28;20052;-74
2022/04/23 04:29:03;;;;;;;12.32;5.25;;;;;;;10.52;67.22;98820.50;3134303;28;20053;-74
2022/04/23 04:32:20;;;;;;;15.27;5.15;;;;;;;10.70;67.06;98832.38;3133542;28;20110;-74
2022/04/23 04:33:52;;;;;;;14.40;5.90;;;;;;;10.75;66.91;98843.38;3134330;28;20080;-73
2022/04/23 04:35:24;;;;;;;9.05;4.55;;;;;;;10.78;67.18;98831.94;3134259;28;20049;-74
2022/04/23 04:37:02;;;;;;;9.35;4.30;;;;;;;10.83;66.68;98841.13;3134174;28;20499;-74
2022/04/23 04:38:35;;;;;;;10.85;4.30;;;;;;;10.87;66.55;98842.59;3128727;28;20057;-74
2022/04/23 04:40:09;;;;;;;9.20;3.83;;;;;;;10.93;66.47;98847.44;3129816;28;20391;-74
2022/04/23 04:41:41;;;;;;;;;;;;;;;11.00;66.57;98849.66;3134466;28;20532;-74
2022/04/23 04:43:13;;;;;;;9.07;3.85;;;;;;;11.04;66.43;98838.13;3134037;28;19928;-74
2022/04/23 04:44:45;;;;;;;10.38;4.38;;;;;;;11.08;66.51;98835.22;3129601;28;20433;-74
2022/04/23 04:46:17;;;;;;;11.35;4.57;;;;;;;11.11;66.33;98835.03;3133291;28;20121;-74
2022/04/23 04:47:49;;;;;;;6.80;3.95;;;;;;;11.18;66.21;98832.91;3130688;28;20060;-74
2022/04/23 04:49:22;;;;;;;10.02;4.30;;;;;;;11.23;65.70;98827.38;3134180;28;20154;-73
2022/04/23 04:50:54;;;;;;;9.40;4.22;;;;;;;11.28;65.86;98835.75;3132080;28;20065;-74
2022/04/23 04:52:26;;;;;;;9.68;4.00;;;;;;;11.32;65.55;98829.41;3134001;28;20114;-74
2022/04/23 04:53:57;;;;;;;8.60;4.50;;;;;;;11.28;65.51;98820.13;3133937;28;20053;-74
2022/04/23 04:55:29;;;;;;;15.48;3.83;;;;;;;11.40;65.55;98827.16;3133780;28;20049;-74
2022/04/23 04:57:03;;;;;;;11.52;3.92;;;;;;;11.48;65.32;98831.88;3133660;28;20049;-74
2022/04/23 04:58:34;;;;;;;13.32;4.60;;;;;;;11.50;64.97;98830.81;3133424;28;20488;-74
2022/04/23 05:00:08;;;;;;;10.07;4.13;;;;;;;11.57;65.26;98832.13;3133763;28;20131;-74
2022/04/23 05:01:39;;;;;;;7.38;4.00;;;;;;;11.54;64.75;98821.88;3123433;28;20100;-74
2022/04/23 05:03:11;;;;;;;7.68;4.18;;;;;;;11.67;65.02;98839.34;3133028;28;20449;-74
2022/04/23 05:04:43;;;;;;;11.32;3.80;;;;;;;11.61;64.85;98824.91;3127396;28;20446;-74
2022/04/23 05:06:15;;;;;;;13.20;3.97;;;;;;;11.80;64.50;98853.25;3133831;28;20056;-74
2022/04/23 05:07:47;;;;;;;10.55;3.85;;;;;;;11.85;64.35;98851.19;3131531;28;20049;-74
2022/04/23 05:09:19;;;;;;;10.98;4.10;;;;;;;11.90;64.41;98838.69;3131403;28;20053;-74
2022/04/23 05:10:51;;;;;;;12.20;4.30;;;;;;;11.97;64.38;98834.75;3133492;28;20103;-74
2022/04/23 05:12:24;;;;;;;11.70;4.30;;;;;;;12.05;64.39;98837.69;3129567;28;20053;-74
2022/04/23 05:13:56;;;;;;;8.52;4.20;;;;;;;12.09;64.09;98835.69;3133755;28;20066;-74
2022/04/23 05:15:28;;;;;;;9.88;3.83;;;;;;;12.22;63.89;98843.56;3130069;28;20557;-74
2022/04/23 05:16:59;;;;;;;13.77;5.32;;;;;;;12.30;63.81;98838.63;3133851;28;20068;-74
2022/04/23 05:18:30;;;;;;;7.22;4.70;;;;;;;12.31;63.68;98826.44;3133071;28;20427;-74
2022/04/23 05:20:02;;;;;;;8.40;5.10;;;;;;;12.50;63.45;98839.91;3136675;28;20067;-74
2022/04/23 05:21:33;;;;;;;13.57;5.38;;;;;;;12.58;63.64;98845.44;3145916;28;20052;-74
2022/04/23 05:23:05;;;;;;;21.13;4.82;;;;;;;12.55;62.89;98823.94;3145632;28;20045;-74
2022/04/23 05:24:37;;;;;;;8.80;3.72;;;;;;;12.73;62.70;98846.16;3145520;28;20091;-74
2022/04/23 05:26:10;;;;;;;8.35;4.05;;;;;;;12.79;62.64;98850.13;3145561;28;20509;-74
2022/04/23 05:27:43;;;;;;;10.20;3.67;;;;;;;12.90;62.66;98848.44;3143095;28;20610;-74
2022/04/23 05:29:15;;;;;;;8.73;3.67;;;;;;;12.98;62.39;98847.88;3145809;28;20052;-74
2022/04/23 05:30:47;;;;;;;10.23;5.57;;;;;;;12.97;61.96;98836.59;3145352;28;20110;-74
2022/04/23 05:32:18;;;;;;;7.60;5.00;;;;;;;13.07;61.81;98849.03;3144931;28;20451;-74
2022/04/23 05:33:51;;;;;;;13.15;5.53;;;;;;;13.19;61.62;98856.00;3145517;28;20055;-74
2022/04/23 05:35:22;;;;;;;12.85;5.15;;;;;;;13.29;61.52;98859.66;3145590;28;20098;-73
2022/04/23 05:36:54;;;;;;;7.70;4.53;;;;;;;13.34;60.78;98857.56;3145532;28;20481;-72
2022/04/23 05:38:26;;;;;;;10.30;4.75;;;;;;;13.58;60.53;98869.84;3145339;28;20055;-73
2022/04/23 05:39:58;;;;;;;10.52;5.47;;;;;;;13.68;60.18;98868.19;3145447;28;20044;-73
2022/04/23 05:41:30;;;;;;;10.05;4.90;;;;;;;13.78;59.89;98874.44;3143464;28;20075;-73
2022/04/23 05:43:02;;;;;;;14.63;5.15;;;;;;;13.87;60.20;98873.78;3142260;28;20105;-73
2022/04/23 05:44:34;;;;;;;15.85;7.72;;;;;;;14.00;60.05;98880.72;3142776;28;20516;-73
2022/04/23 05:46:05;;;;;;;18.02;9.90;;;;;;;14.12;59.83;98877.19;3142050;28;20052;-73
2022/04/23 05:47:40;;;;;;;15.63;9.07;;;;;;;14.26;59.71;98886.63;3144940;28;20074;-73
2022/04/23 05:49:12;;;;;;;19.27;9.85;;;;;;;14.36;59.27;98884.16;3143362;28;20044;-73
2022/04/23 05:50:44;;;;;;;18.73;10.48;;;;;;;14.33;59.37;98866.88;3145254;28;20586;-72
2022/04/23 05:52:16;;;;;;;20.02;9.75;;;;;;;14.47;58.95;98881.56;3141181;28;20049;-73
2022/04/23 05:53:48;;;;;;;17.60;8.63;;;;;;;14.42;58.98;98866.19;3140901;28;20048;-72
2022/04/23 05:55:20;;;;;;;21.45;9.65;;;;;;;14.56;58.93;98883.50;3138321;28;20040;-73
2022/04/23 05:56:51;;;;;;;25.23;9.77;;;;;;;14.62;58.55;98890.91;3145419;28;20083;-72
2022/04/23 05:58:25;;;;;;;24.98;12.77;;;;;;;14.58;58.10;98889.44;3135700;28;20445;-73
2022/04/23 05:59:56;;;;;;;;;;;;;;;14.61;58.00;98889.25;3145943;28;20113;-73
2022/04/23 06:01:28;;;;;;;19.58;10.73;;;;;;;14.56;58.08;98880.91;3141121;28;19927;-73
2022/04/23 06:03:00;;;;;;;18.27;9.52;;;;;;;14.65;57.70;98885.44;3136895;28;20121;-74
2022/04/23 06:04:31;;;;;;;19.25;9.75;;;;;;;14.67;57.36;98893.16;3138905;28;20059;-73
2022/04/23 06:06:03;;;;;;;22.95;9.40;;;;;;;14.70;57.50;98898.16;3141964;28;20060;-73
2022/04/23 06:07:34;;;;;;;16.77;7.60;;;;;;;14.61;57.27;98877.91;3144108;28;20495;-74
2022/04/23 06:09:05;;;;;;;16.35;6.90;;;;;;;14.75;56.93;98891.63;3139922;28;20501;-73
2022/04/23 06:10:37;;;;;;;11.82;6.55;;;;;;;14.75;56.90;98881.13;3145635;28;20098;-74
2022/04/23 06:12:09;;;;;;;9.52;5.50;;;;;;;14.83;56.73;98898.06;3149108;28;20048;-74
2022/04/23 06:13:42;;;;;;;12.50;5.43;;;;;;;14.86;56.77;98896.03;3127412;28;20478;-73
2022/04/23 06:15:14;;;;;;;6.82;4.97;;;;;;;14.93;56.55;98888.53;3143190;28;20044;-74
2022/04/23 06:16:45;;;;;;;12.85;5.30;;;;;;;14.95;56.26;98890.09;3145581;28;20058;-73
2022/04/23 06:18:17;;;;;;;12.13;4.38;;;;;;;15.00;55.98;98889.75;3145215;28;20048;-74
2022/04/23 06:19:49;;;;;;;8.82;3.95;;;;;;;15.08;55.75;98889.13;3144305;28;20048;-73
2022/04/23 06:21:21;;;;;;;12.30;5.10;;;;;;;15.16;55.86;98900.69;3145122;28;20044;-74
2022/04/23 06:22:53;;;;;;;12.82;5.47;;;;;;;15.19;55.56;98900.44;3145001;28;20083;-73
2022/04/23 06:24:25;;;;;;;11.48;4.35;;;;;;;15.25;55.30;98901.75;3145321;28;20048;-73
2022/04/23 06:25:57;;;;;;;15.93;4.78;;;;;;;15.31;55.31;98903.06;3145075;28;20052;-74
2022/04/23 06:27:30;;;;;;;12.18;4.68;;;;;;;15.37;55.46;98908.66;3145330;28;20482;-73
2022/04/23 06:29:03;;;;;;;9.25;4.85;;;;;;;15.40;54.87;98904.97;3145012;28;20052;-74
2022/04/23 06:30:35;;;;;;;8.18;4.60;;;;;;;15.40;54.91;98904.97;3144869;28;20460;-74
2022/04/23 06:32:07;;;;;;;8.25;3.58;;;;;;;15.39;54.73;98906.75;3145187;28;20110;-74
2022/04/23 06:33:42;;;;;;;12.38;4.00;;;;;;;15.34;54.69;98898.41;3145088;28;20536;-74
2022/04/23 06:35:13;;;;;;;6.57;3.65;;;;;;;15.41;54.85;98902.22;3145060;28;20510;-74
2022/04/23 06:36:45;;;;;;;10.02;4.00;;;;;;;15.40;54.63;98892.66;3145036;28;20106;-74
2022/04/23 06:38:17;;;;;;;8.27;3.38;;;;;;;15.47;54.32;98906.16;3138487;28;20053;-74
2022/04/23 06:39:50;;;;;;;9.23;4.32;;;;;;;15.38;54.48;98889.34;3145139;28;20048;-75
2022/04/23 06:41:22;;;;;;;;;;;;;;;15.53;54.36;98905.66;3145352;28;20044;-74
2022/04/23 06:42:54;;;;;;;10.30;4.30;;;;;;;15.48;54.26;98894.69;3144852;28;19967;-74
2022/04/23 06:44:27;;;;;;;11.95;4.32;;;;;;;15.46;54.09;98886.09;3144995;28;20059;-74
2022/04/23 06:45:59;;;;;;;;;;;;;;;15.48;53.82;98900.78;3145346;28;20207;-73
2022/04/23 06:47:31;;;;;;;10.68;3.92;;;;;;;15.50;54.08;98902.44;3144494;28;20015;-73
2022/04/23 06:49:05;;;;;;;8.88;3.85;;;;;;;15.48;54.01;98892.06;3144748;28;20050;-73
2022/04/23 06:50:37;;;;;;;9.63;3.45;;;;;;;15.41;53.94;98878.63;3145218;28;20061;-73
2022/04/23 06:52:09;;;;;;;9.32;4.00;;;;;;;15.62;53.82;98912.78;3145257;28;20082;-73
2022/04/23 06:53:41;;;;;;;9.32;3.55;;;;;;;15.70;53.77;98912.19;3144711;28;20110;-73
2022/04/23 06:55:13;;;;;;;7.80;3.70;;;;;;;15.71;53.80;98908.63;3144901;28;20135;-73
2022/04/23 06:56:45;;;;;;;9.95;4.28;;;;;;;15.75;53.67;98912.66;3144570;28;20134;-73
2022/04/23 06:58:17;;;;;;;7.60;3.85;;;;;;;15.82;53.76;98915.63;3144833;28;20056;-73
2022/04/23 06:59:50;;;;;;;15.82;4.65;;;;;;;15.82;53.69;98913.81;3145266;28;20045;-73
2022/04/23 07:01:21;;;;;;;;;;;;;;;15.85;53.66;98921.47;3145102;28;20084;-73
2022/04/23 07:02:53;;;;;;;11.68;4.32;;;;;;;15.91;53.94;98920.13;3144693;28;19920;-73
2022/04/23 07:04:25;;;;;;;9.93;4.30;;;;;;;15.95;53.85;98918.09;3145004;28;20064;-73
2022/04/23 07:05:57;;;;;;;14.70;3.92;;;;;;;15.93;53.55;98919.03;3144836;28;20087;-73
2022/04/23 07:07:29;;;;;;;8.48;3.90;;;;;;;15.88;53.66;98910.72;3145115;28;20115;-73
2022/04/23 07:09:01;;;;;;;7.00;3.92;;;;;;;15.92;53.90;98919.19;3144891;28;20048;-73
2022/04/23 07:10:33;;;;;;;7.35;3.28;;;;;;;15.92;53.70;98895.56;3144379;28;20567;-73
2022/04/23 07:12:06;;;;;;;9.03;3.53;;;;;;;16.06;53.83;98910.16;3144783;28;20049;-73
2022/04/23 07:13:39;;;;;;;7.05;4.22;;;;;;;16.14;53.63;98926.97;3145216;28;20053;-73
2022/04/23 07:15:14;;;;;;;7.75;3.65;;;;;;;16.22;53.26;98925.50;3144817;28;20049;-74